sensor_id;sensor_type;location;lat;lon;timestamp;pressure;altitude;pressure_sealevel;temperature;humidity
9855;BME280;4966;48.112;9.282;2024-03-22T00:01:47;95407.28;;;8.33;74.57
9855;BME280;4966;48.112;9.282;2024-03-22T00:04:13;95409.28;;;8.05;76.43
9855;BME280;4966;48.112;9.282;2024-03-22T00:06:44;95406.69;;;8.00;76.33
9855;BME280;4966;48.112;9.282;2024-03-22T00:09:10;95406.28;;;7.93;76.93
9855;BME280;4966;48.112;9.282;2024-03-22T00:11:36;95415.03;;;7.76;77.48
9855;BME280;4966;48.112;9.282;2024-03-22T00:14:02;95419.13;;;7.73;77.54
9855;BME280;4966;48.112;9.282;2024-03-22T00:16:28;95418.81;;;7.88;76.86
9855;BME280;4966;48.112;9.282;2024-03-22T00:18:53;95418.31;;;7.73;77.23
9855;BME280;4966;48.112;9.282;2024-03-22T00:21:18;95408.69;;;7.80;76.82
9855;BME280;4966;48.112;9.282;2024-03-22T00:23:45;95408.50;;;7.63;77.29
9855;BME280;4966;48.112;9.282;2024-03-22T00:26:10;95405.31;;;7.47;77.87
9855;BME280;4966;48.112;9.282;2024-03-22T00:28:36;95398.47;;;7.63;76.75
9855;BME280;4966;48.112;9.282;2024-03-22T00:31:01;95384.91;;;7.63;75.26
9855;BME280;4966;48.112;9.282;2024-03-22T00:33:26;95393.03;;;7.22;77.24
9855;BME280;4966;48.112;9.282;2024-03-22T00:35:52;95389.00;;;7.06;77.65
9855;BME280;4966;48.112;9.282;2024-03-22T00:38:17;95387.91;;;7.07;77.79
9855;BME280;4966;48.112;9.282;2024-03-22T00:40:42;95382.00;;;7.05;77.72
9855;BME280;4966;48.112;9.282;2024-03-22T00:43:08;95383.72;;;7.14;76.66
9855;BME280;4966;48.112;9.282;2024-03-22T00:45:33;95379.56;;;7.03;77.65
9855;BME280;4966;48.112;9.282;2024-03-22T00:47:58;95375.44;;;6.78;78.87
9855;BME280;4966;48.112;9.282;2024-03-22T00:50:24;95373.28;;;6.75;79.00
9855;BME280;4966;48.112;9.282;2024-03-22T00:52:52;95374.13;;;6.75;79.60
9855;BME280;4966;48.112;9.282;2024-03-22T00:55:19;95365.44;;;6.92;78.79
9855;BME280;4966;48.112;9.282;2024-03-22T00:57:45;95362.03;;;7.00;77.95
9855;BME280;4966;48.112;9.282;2024-03-22T01:00:10;95369.09;;;6.69;78.94
9855;BME280;4966;48.112;9.282;2024-03-22T01:02:36;95359.09;;;6.50;79.58
9855;BME280;4966;48.112;9.282;2024-03-22T01:05:02;95358.81;;;6.52;79.08
9855;BME280;4966;48.112;9.282;2024-03-22T01:07:27;95365.53;;;6.54;79.35
9855;BME280;4966;48.112;9.282;2024-03-22T01:09:53;95359.81;;;6.56;79.11
9855;BME280;4966;48.112;9.282;2024-03-22T01:12:18;95362.56;;;6.70;77.30
9855;BME280;4966;48.112;9.282;2024-03-22T01:14:43;95361.22;;;6.53;77.49
9855;BME280;4966;48.112;9.282;2024-03-22T01:17:09;95356.50;;;6.45;77.97
9855;BME280;4966;48.112;9.282;2024-03-22T01:19:34;95357.97;;;6.37;78.29
9855;BME280;4966;48.112;9.282;2024-03-22T01:21:59;95362.72;;;6.27;78.32
9855;BME280;4966;48.112;9.282;2024-03-22T01:24:24;95368.78;;;6.18;78.47
9855;BME280;4966;48.112;9.282;2024-03-22T01:26:50;95361.72;;;6.23;78.60
9855;BME280;4966;48.112;9.282;2024-03-22T01:29:15;95377.16;;;6.36;76.79
9855;BME280;4966;48.112;9.282;2024-03-22T01:31:40;95363.81;;;6.07;78.11
9855;BME280;4966;48.112;9.282;2024-03-22T01:34:06;95363.22;;;6.10;77.85
9855;BME280;4966;48.112;9.282;2024-03-22T01:36:31;95367.91;;;6.04;78.67
9855;BME280;4966;48.112;9.282;2024-03-22T01:38:57;95354.94;;;6.06;78.28
9855;BME280;4966;48.112;9.282;2024-03-22T01:41:22;95362.28;;;6.01;78.65
9855;BME280;4966;48.112;9.282;2024-03-22T01:43:47;95353.69;;;5.99;78.76
9855;BME280;4966;48.112;9.282;2024-03-22T01:46:13;95356.44;;;6.12;78.29
9855;BME280;4966;48.112;9.282;2024-03-22T01:48:38;95346.91;;;6.01;78.55
9855;BME280;4966;48.112;9.282;2024-03-22T01:51:04;95348.09;;;5.90;79.04
9855;BME280;4966;48.112;9.282;2024-03-22T01:53:30;95343.59;;;6.04;77.96
9855;BME280;4966;48.112;9.282;2024-03-22T01:55:56;95343.25;;;6.11;76.54
9855;BME280;4966;48.112;9.282;2024-03-22T01:58:22;95344.09;;;5.87;77.84
9855;BME280;4966;48.112;9.282;2024-03-22T02:00:47;95334.06;;;5.69;78.67
9855;BME280;4966;48.112;9.282;2024-03-22T02:03:13;95329.53;;;5.64;79.05
9855;BME280;4966;48.112;9.282;2024-03-22T02:05:38;95331.66;;;5.67;79.26
9855;BME280;4966;48.112;9.282;2024-03-22T02:08:04;95321.97;;;5.85;78.41
9855;BME280;4966;48.112;9.282;2024-03-22T02:10:29;95320.31;;;5.70;78.26
9855;BME280;4966;48.112;9.282;2024-03-22T02:12:56;95314.16;;;5.65;78.46
9855;BME280;4966;48.112;9.282;2024-03-22T02:15:21;95315.69;;;5.52;79.75
9855;BME280;4966;48.112;9.282;2024-03-22T02:17:46;95314.53;;;5.58;79.30
9855;BME280;4966;48.112;9.282;2024-03-22T02:20:12;95310.13;;;5.62;77.98
9855;BME280;4966;48.112;9.282;2024-03-22T02:22:38;95312.31;;;5.41;79.54
9855;BME280;4966;48.112;9.282;2024-03-22T02:25:03;95307.41;;;5.43;79.08
9855;BME280;4966;48.112;9.282;2024-03-22T02:27:29;95303.19;;;5.37;79.04
9855;BME280;4966;48.112;9.282;2024-03-22T02:29:54;95308.78;;;5.41;79.12
9855;BME280;4966;48.112;9.282;2024-03-22T02:32:20;95303.63;;;5.44;78.96
9855;BME280;4966;48.112;9.282;2024-03-22T02:34:45;95301.59;;;5.55;78.18
9855;BME280;4966;48.112;9.282;2024-03-22T02:37:10;95304.78;;;5.38;79.37
9855;BME280;4966;48.112;9.282;2024-03-22T02:39:36;95306.63;;;5.43;79.53
9855;BME280;4966;48.112;9.282;2024-03-22T02:42:01;95298.53;;;5.62;77.88
9855;BME280;4966;48.112;9.282;2024-03-22T02:44:26;95295.75;;;5.48;78.41
9855;BME280;4966;48.112;9.282;2024-03-22T02:46:52;95289.94;;;5.60;77.73
9855;BME280;4966;48.112;9.282;2024-03-22T02:49:17;95285.53;;;5.45;78.46
9855;BME280;4966;48.112;9.282;2024-03-22T02:51:42;95283.97;;;5.44;78.63
9855;BME280;4966;48.112;9.282;2024-03-22T02:54:08;95289.47;;;5.33;78.72
9855;BME280;4966;48.112;9.282;2024-03-22T02:56:33;95290.44;;;5.43;78.22
9855;BME280;4966;48.112;9.282;2024-03-22T02:58:58;95289.69;;;5.37;77.05
9855;BME280;4966;48.112;9.282;2024-03-22T03:01:24;95296.97;;;5.18;77.52
9855;BME280;4966;48.112;9.282;2024-03-22T03:03:49;95281.78;;;5.03;78.46
9855;BME280;4966;48.112;9.282;2024-03-22T03:06:14;95284.00;;;4.96;79.03
9855;BME280;4966;48.112;9.282;2024-03-22T03:08:41;95283.56;;;4.88;79.50
9855;BME280;4966;48.112;9.282;2024-03-22T03:11:07;95275.44;;;5.13;78.08
9855;BME280;4966;48.112;9.282;2024-03-22T03:13:32;95276.13;;;4.99;78.49
9855;BME280;4966;48.112;9.282;2024-03-22T03:15:57;95272.66;;;4.75;80.52
9855;BME280;4966;48.112;9.282;2024-03-22T03:18:23;95270.16;;;4.78;80.23
9855;BME280;4966;48.112;9.282;2024-03-22T03:20:48;95270.75;;;4.75;81.13
9855;BME280;4966;48.112;9.282;2024-03-22T03:23:14;95269.69;;;4.95;79.83
9855;BME280;4966;48.112;9.282;2024-03-22T03:25:39;95277.13;;;4.84;79.11
9855;BME280;4966;48.112;9.282;2024-03-22T03:28:04;95267.53;;;4.73;79.65
9855;BME280;4966;48.112;9.282;2024-03-22T03:30:31;95269.19;;;4.69;79.92
9855;BME280;4966;48.112;9.282;2024-03-22T03:32:56;95266.16;;;4.76;79.08
9855;BME280;4966;48.112;9.282;2024-03-22T03:35:22;95262.59;;;4.80;78.78
9855;BME280;4966;48.112;9.282;2024-03-22T03:37:47;95263.47;;;4.76;77.57
9855;BME280;4966;48.112;9.282;2024-03-22T03:40:13;95263.31;;;4.67;77.80
9855;BME280;4966;48.112;9.282;2024-03-22T03:42:38;95262.84;;;4.60;77.93
9855;BME280;4966;48.112;9.282;2024-03-22T03:45:04;95260.09;;;4.65;78.42
9855;BME280;4966;48.112;9.282;2024-03-22T03:47:30;95260.53;;;4.48;78.79
9855;BME280;4966;48.112;9.282;2024-03-22T03:49:55;95258.97;;;4.42;78.98
9855;BME280;4966;48.112;9.282;2024-03-22T03:52:20;95259.00;;;4.37;79.36
9855;BME280;4966;48.112;9.282;2024-03-22T03:54:46;95253.81;;;4.45;79.75
9855;BME280;4966;48.112;9.282;2024-03-22T03:57:11;95244.84;;;4.55;79.14
9855;BME280;4966;48.112;9.282;2024-03-22T03:59:37;95243.44;;;4.58;79.32
9855;BME280;4966;48.112;9.282;2024-03-22T04:02:02;95240.38;;;4.40;79.65
9855;BME280;4966;48.112;9.282;2024-03-22T04:04:27;95240.69;;;4.39;80.31
9855;BME280;4966;48.112;9.282;2024-03-22T04:06:53;95243.22;;;4.54;79.93
9855;BME280;4966;48.112;9.282;2024-03-22T04:09:18;95230.31;;;4.75;78.64
9855;BME280;4966;48.112;9.282;2024-03-22T04:11:43;95229.34;;;4.66;78.59
9855;BME280;4966;48.112;9.282;2024-03-22T04:14:09;95222.97;;;4.81;78.56
9855;BME280;4966;48.112;9.282;2024-03-22T04:16:35;95227.63;;;4.75;78.34
9855;BME280;4966;48.112;9.282;2024-03-22T04:19:00;95215.41;;;4.83;78.49
9855;BME280;4966;48.112;9.282;2024-03-22T04:21:25;95209.25;;;5.01;76.94
9855;BME280;4966;48.112;9.282;2024-03-22T04:23:51;95212.22;;;5.00;76.88
9855;BME280;4966;48.112;9.282;2024-03-22T04:26:16;95212.25;;;4.76;78.39
9855;BME280;4966;48.112;9.282;2024-03-22T04:28:41;95208.56;;;4.90;78.11
9855;BME280;4966;48.112;9.282;2024-03-22T04:31:08;95219.16;;;5.06;77.79
9855;BME280;4966;48.112;9.282;2024-03-22T04:33:34;95206.78;;;5.24;76.96
9855;BME280;4966;48.112;9.282;2024-03-22T04:36:01;95207.59;;;5.24;76.10
9855;BME280;4966;48.112;9.282;2024-03-22T04:38:27;95211.53;;;5.13;77.04
9855;BME280;4966;48.112;9.282;2024-03-22T04:40:53;95208.38;;;5.06;76.97
9855;BME280;4966;48.112;9.282;2024-03-22T04:43:19;95209.75;;;5.03;76.74
9855;BME280;4966;48.112;9.282;2024-03-22T04:45:47;95214.13;;;4.99;77.77
9855;BME280;4966;48.112;9.282;2024-03-22T04:48:13;95217.25;;;5.06;78.49
9855;BME280;4966;48.112;9.282;2024-03-22T04:50:39;95220.69;;;5.12;77.93
9855;BME280;4966;48.112;9.282;2024-03-22T04:53:04;95205.34;;;5.13;78.20
9855;BME280;4966;48.112;9.282;2024-03-22T04:55:31;95210.63;;;4.99;78.20
9855;BME280;4966;48.112;9.282;2024-03-22T04:57:56;95212.00;;;4.96;78.46
9855;BME280;4966;48.112;9.282;2024-03-22T05:00:21;95215.06;;;4.89;79.14
9855;BME280;4966;48.112;9.282;2024-03-22T05:02:47;95211.94;;;5.01;78.79
9855;BME280;4966;48.112;9.282;2024-03-22T05:05:13;95222.22;;;4.99;78.04
9855;BME280;4966;48.112;9.282;2024-03-22T05:07:38;95220.50;;;4.84;78.64
9855;BME280;4966;48.112;9.282;2024-03-22T05:10:04;95212.00;;;4.96;77.70
9855;BME280;4966;48.112;9.282;2024-03-22T05:12:30;95222.34;;;4.89;77.81
9855;BME280;4966;48.112;9.282;2024-03-22T05:14:56;95213.00;;;4.81;77.99
9855;BME280;4966;48.112;9.282;2024-03-22T05:17:21;95220.91;;;4.73;78.37
9855;BME280;4966;48.112;9.282;2024-03-22T05:19:46;95220.63;;;4.74;78.72
9855;BME280;4966;48.112;9.282;2024-03-22T05:22:12;95210.06;;;4.78;78.85
9855;BME280;4966;48.112;9.282;2024-03-22T05:24:37;95216.25;;;4.78;78.44
9855;BME280;4966;48.112;9.282;2024-03-22T05:27:03;95218.53;;;4.90;77.91
9855;BME280;4966;48.112;9.282;2024-03-22T05:29:28;95213.16;;;4.90;78.27
9855;BME280;4966;48.112;9.282;2024-03-22T05:31:53;95209.00;;;4.98;77.91
9855;BME280;4966;48.112;9.282;2024-03-22T05:34:19;95222.75;;;5.20;77.03
9855;BME280;4966;48.112;9.282;2024-03-22T05:36:45;95217.13;;;5.17;76.98
9855;BME280;4966;48.112;9.282;2024-03-22T05:39:11;95213.22;;;5.28;76.92
9855;BME280;4966;48.112;9.282;2024-03-22T05:41:37;95212.09;;;5.48;75.24
9855;BME280;4966;48.112;9.282;2024-03-22T05:44:03;95218.44;;;5.38;75.59
9855;BME280;4966;48.112;9.282;2024-03-22T05:46:29;95223.78;;;5.24;77.27
9855;BME280;4966;48.112;9.282;2024-03-22T05:48:56;95215.25;;;5.36;77.27
9855;BME280;4966;48.112;9.282;2024-03-22T05:51:21;95226.53;;;5.57;76.21
9855;BME280;4966;48.112;9.282;2024-03-22T05:53:47;95224.16;;;5.56;76.87
9855;BME280;4966;48.112;9.282;2024-03-22T05:56:13;95219.56;;;5.89;76.29
9855;BME280;4966;48.112;9.282;2024-03-22T05:58:39;95210.09;;;5.91;76.56
9855;BME280;4966;48.112;9.282;2024-03-22T06:01:05;95215.47;;;6.10;75.89
9855;BME280;4966;48.112;9.282;2024-03-22T06:03:30;95205.41;;;6.16;75.25
9855;BME280;4966;48.112;9.282;2024-03-22T06:05:55;95202.03;;;6.38;74.65
9855;BME280;4966;48.112;9.282;2024-03-22T06:08:24;95202.84;;;6.52;74.11
9855;BME280;4966;48.112;9.282;2024-03-22T06:10:51;95200.06;;;6.71;73.68
9855;BME280;4966;48.112;9.282;2024-03-22T06:13:17;95198.84;;;6.77;74.13
9855;BME280;4966;48.112;9.282;2024-03-22T06:15:43;95191.06;;;6.76;74.83
9855;BME280;4966;48.112;9.282;2024-03-22T06:18:11;95194.84;;;7.02;73.14
9855;BME280;4966;48.112;9.282;2024-03-22T06:20:36;95189.69;;;7.15;72.17
9855;BME280;4966;48.112;9.282;2024-03-22T06:23:01;95190.00;;;7.13;72.49
9855;BME280;4966;48.112;9.282;2024-03-22T06:25:27;95186.81;;;7.11;73.16
9855;BME280;4966;48.112;9.282;2024-03-22T06:27:52;95193.69;;;7.17;74.00
9855;BME280;4966;48.112;9.282;2024-03-22T06:30:17;95185.41;;;7.14;74.32
9855;BME280;4966;48.112;9.282;2024-03-22T06:32:43;95189.47;;;7.25;74.38
9855;BME280;4966;48.112;9.282;2024-03-22T06:35:08;95185.34;;;7.41;73.91
9855;BME280;4966;48.112;9.282;2024-03-22T06:37:33;95177.97;;;7.56;73.05
9855;BME280;4966;48.112;9.282;2024-03-22T06:39:59;95173.72;;;7.63;73.53
9855;BME280;4966;48.112;9.282;2024-03-22T06:42:24;95175.09;;;7.75;73.01
9855;BME280;4966;48.112;9.282;2024-03-22T06:44:51;95172.31;;;7.66;73.22
9855;BME280;4966;48.112;9.282;2024-03-22T06:47:16;95171.47;;;7.57;74.38
9855;BME280;4966;48.112;9.282;2024-03-22T06:49:41;95169.06;;;7.55;75.09
9855;BME280;4966;48.112;9.282;2024-03-22T06:52:07;95175.00;;;7.43;75.49
9855;BME280;4966;48.112;9.282;2024-03-22T06:54:32;95165.84;;;7.53;75.21
9855;BME280;4966;48.112;9.282;2024-03-22T06:56:57;95171.25;;;7.53;75.47
9855;BME280;4966;48.112;9.282;2024-03-22T06:59:23;95166.06;;;7.57;75.33
9855;BME280;4966;48.112;9.282;2024-03-22T07:01:48;95169.94;;;7.64;75.19
9855;BME280;4966;48.112;9.282;2024-03-22T07:04:14;95159.63;;;7.75;75.12
9855;BME280;4966;48.112;9.282;2024-03-22T07:06:39;95157.00;;;7.84;75.17
9855;BME280;4966;48.112;9.282;2024-03-22T07:09:04;95160.19;;;7.86;75.19
9855;BME280;4966;48.112;9.282;2024-03-22T07:11:32;95155.66;;;7.95;75.55
9855;BME280;4966;48.112;9.282;2024-03-22T07:13:58;95162.38;;;8.06;75.34
9855;BME280;4966;48.112;9.282;2024-03-22T07:16:23;95161.25;;;8.30;75.01
9855;BME280;4966;48.112;9.282;2024-03-22T07:18:48;95165.88;;;8.29;75.54
9855;BME280;4966;48.112;9.282;2024-03-22T07:21:14;95161.31;;;8.16;76.56
9855;BME280;4966;48.112;9.282;2024-03-22T07:23:39;95160.28;;;8.57;75.13
9855;BME280;4966;48.112;9.282;2024-03-22T07:26:04;95157.94;;;8.73;74.48
9855;BME280;4966;48.112;9.282;2024-03-22T07:28:31;95162.56;;;8.72;74.74
9855;BME280;4966;48.112;9.282;2024-03-22T07:30:56;95165.44;;;8.76;74.86
9855;BME280;4966;48.112;9.282;2024-03-22T07:33:21;95161.19;;;8.92;74.46
9855;BME280;4966;48.112;9.282;2024-03-22T07:35:47;95164.75;;;9.19;74.18
9855;BME280;4966;48.112;9.282;2024-03-22T07:38:12;95169.72;;;9.26;74.75
9855;BME280;4966;48.112;9.282;2024-03-22T07:40:37;95161.25;;;9.36;74.30
9855;BME280;4966;48.112;9.282;2024-03-22T07:43:03;95159.22;;;9.59;73.56
9855;BME280;4966;48.112;9.282;2024-03-22T07:45:35;95159.69;;;9.61;73.52
9855;BME280;4966;48.112;9.282;2024-03-22T07:48:01;95142.56;;;9.95;72.84
9855;BME280;4966;48.112;9.282;2024-03-22T07:50:26;95144.66;;;9.98;73.03
9855;BME280;4966;48.112;9.282;2024-03-22T07:52:52;95149.34;;;10.36;72.35
9855;BME280;4966;48.112;9.282;2024-03-22T07:55:18;95154.91;;;10.57;72.03
9855;BME280;4966;48.112;9.282;2024-03-22T07:57:43;95142.38;;;10.65;71.49
9855;BME280;4966;48.112;9.282;2024-03-22T08:00:09;95144.84;;;10.88;71.36
9855;BME280;4966;48.112;9.282;2024-03-22T08:02:35;95136.38;;;11.10;71.51
9855;BME280;4966;48.112;9.282;2024-03-22T08:05:00;95136.00;;;11.20;71.05
9855;BME280;4966;48.112;9.282;2024-03-22T08:07:27;95136.00;;;11.41;70.90
9855;BME280;4966;48.112;9.282;2024-03-22T08:09:52;95137.88;;;11.49;71.64
9855;BME280;4966;48.112;9.282;2024-03-22T08:12:18;95136.00;;;11.83;70.39
9855;BME280;4966;48.112;9.282;2024-03-22T08:14:44;95126.03;;;11.87;70.04
9855;BME280;4966;48.112;9.282;2024-03-22T08:17:10;95126.09;;;12.00;70.00
9855;BME280;4966;48.112;9.282;2024-03-22T08:19:37;95121.81;;;12.11;69.91
9855;BME280;4966;48.112;9.282;2024-03-22T08:22:03;95117.09;;;12.45;69.14
9855;BME280;4966;48.112;9.282;2024-03-22T08:24:29;95120.19;;;12.55;68.88
9855;BME280;4966;48.112;9.282;2024-03-22T08:26:54;95120.75;;;12.61;67.71
9855;BME280;4966;48.112;9.282;2024-03-22T08:29:21;95120.09;;;12.89;67.33
9855;BME280;4966;48.112;9.282;2024-03-22T08:31:46;95120.66;;;13.07;67.67
9855;BME280;4966;48.112;9.282;2024-03-22T08:34:12;95108.47;;;13.41;65.65
9855;BME280;4966;48.112;9.282;2024-03-22T08:36:37;95109.47;;;13.49;65.06
9855;BME280;4966;48.112;9.282;2024-03-22T08:39:02;95108.06;;;13.55;64.28
9855;BME280;4966;48.112;9.282;2024-03-22T08:41:28;95102.13;;;13.65;62.63
9855;BME280;4966;48.112;9.282;2024-03-22T08:43:53;95091.47;;;13.48;62.73
9855;BME280;4966;48.112;9.282;2024-03-22T08:46:19;95095.69;;;13.45;61.51
9855;BME280;4966;48.112;9.282;2024-03-22T08:48:46;95097.00;;;13.92;60.28
9855;BME280;4966;48.112;9.282;2024-03-22T08:51:12;95086.00;;;14.04;59.79
9855;BME280;4966;48.112;9.282;2024-03-22T08:53:37;95091.53;;;13.92;59.65
9855;BME280;4966;48.112;9.282;2024-03-22T08:56:03;95081.44;;;14.24;58.16
9855;BME280;4966;48.112;9.282;2024-03-22T08:58:29;95082.53;;;14.51;57.91
9855;BME280;4966;48.112;9.282;2024-03-22T09:00:54;95075.22;;;14.71;57.96
9855;BME280;4966;48.112;9.282;2024-03-22T09:03:20;95065.81;;;14.40;57.30
9855;BME280;4966;48.112;9.282;2024-03-22T09:05:46;95068.50;;;14.84;56.25
9855;BME280;4966;48.112;9.282;2024-03-22T09:08:12;95077.25;;;14.58;56.75
9855;BME280;4966;48.112;9.282;2024-03-22T09:10:37;95067.00;;;14.87;55.43
9855;BME280;4966;48.112;9.282;2024-03-22T09:13:02;95059.13;;;14.85;55.39
9855;BME280;4966;48.112;9.282;2024-03-22T09:15:28;95058.56;;;14.96;54.72
9855;BME280;4966;48.112;9.282;2024-03-22T09:17:53;95054.72;;;15.16;54.71
9855;BME280;4966;48.112;9.282;2024-03-22T09:20:19;95055.75;;;15.27;54.79
9855;BME280;4966;48.112;9.282;2024-03-22T09:22:44;95056.28;;;15.33;53.99
9855;BME280;4966;48.112;9.282;2024-03-22T09:25:09;95056.53;;;15.08;53.59
9855;BME280;4966;48.112;9.282;2024-03-22T09:27:35;95047.31;;;15.56;53.30
9855;BME280;4966;48.112;9.282;2024-03-22T09:30:00;95041.44;;;15.92;50.93
9855;BME280;4966;48.112;9.282;2024-03-22T09:32:26;95039.97;;;15.60;52.98
9855;BME280;4966;48.112;9.282;2024-03-22T09:34:52;95038.97;;;16.07;52.68
9855;BME280;4966;48.112;9.282;2024-03-22T09:37:17;95034.22;;;15.84;52.69
9855;BME280;4966;48.112;9.282;2024-03-22T09:39:43;95024.75;;;15.82;52.36
9855;BME280;4966;48.112;9.282;2024-03-22T09:42:12;95028.81;;;16.11;52.95
9855;BME280;4966;48.112;9.282;2024-03-22T09:44:47;95023.88;;;16.20;52.98
9855;BME280;4966;48.112;9.282;2024-03-22T09:47:15;95024.44;;;16.29;52.02
9855;BME280;4966;48.112;9.282;2024-03-22T09:49:41;95018.66;;;16.11;51.86
9855;BME280;4966;48.112;9.282;2024-03-22T09:52:14;95006.31;;;16.25;52.20
9855;BME280;4966;48.112;9.282;2024-03-22T09:54:41;95001.97;;;16.47;51.10
9855;BME280;4966;48.112;9.282;2024-03-22T09:57:11;94999.91;;;16.90;50.77
9855;BME280;4966;48.112;9.282;2024-03-22T09:59:38;95005.47;;;16.93;49.25
9855;BME280;4966;48.112;9.282;2024-03-22T10:02:04;95000.19;;;16.81;50.51
9855;BME280;4966;48.112;9.282;2024-03-22T10:04:30;94998.88;;;16.75;49.75
9855;BME280;4966;48.112;9.282;2024-03-22T10:06:55;94989.31;;;16.88;49.21
9855;BME280;4966;48.112;9.282;2024-03-22T10:09:31;94990.88;;;16.89;48.34
9855;BME280;4966;48.112;9.282;2024-03-22T10:11:57;94984.75;;;17.30;48.30
9855;BME280;4966;48.112;9.282;2024-03-22T10:14:23;94979.44;;;17.44;47.80
9855;BME280;4966;48.112;9.282;2024-03-22T10:16:52;94980.53;;;17.09;47.56
9855;BME280;4966;48.112;9.282;2024-03-22T10:19:21;94981.13;;;17.22;47.72
9855;BME280;4966;48.112;9.282;2024-03-22T10:21:48;94971.06;;;17.67;47.45
9855;BME280;4966;48.112;9.282;2024-03-22T10:24:24;94971.53;;;17.76;46.97
9855;BME280;4966;48.112;9.282;2024-03-22T10:26:50;94969.06;;;18.01;45.04
9855;BME280;4966;48.112;9.282;2024-03-22T10:29:15;94964.91;;;18.18;45.91
9855;BME280;4966;48.112;9.282;2024-03-22T10:31:41;94965.81;;;17.89;44.88
9855;BME280;4966;48.112;9.282;2024-03-22T10:34:07;94959.09;;;18.27;43.40
9855;BME280;4966;48.112;9.282;2024-03-22T10:36:34;94957.41;;;18.63;42.71
9855;BME280;4966;48.112;9.282;2024-03-22T10:39:00;94956.00;;;18.87;41.39
9855;BME280;4966;48.112;9.282;2024-03-22T10:41:26;94947.28;;;18.82;43.19
9855;BME280;4966;48.112;9.282;2024-03-22T10:43:52;94945.97;;;19.20;42.97
9855;BME280;4966;48.112;9.282;2024-03-22T10:46:20;94945.41;;;18.93;42.39
9855;BME280;4966;48.112;9.282;2024-03-22T10:48:45;94938.72;;;18.98;41.63
9855;BME280;4966;48.112;9.282;2024-03-22T10:51:12;94936.38;;;19.03;40.89
9855;BME280;4966;48.112;9.282;2024-03-22T10:53:39;94938.88;;;19.26;41.19
9855;BME280;4966;48.112;9.282;2024-03-22T10:56:06;94929.72;;;19.04;40.22
9855;BME280;4966;48.112;9.282;2024-03-22T10:58:32;94927.63;;;18.80;41.85
9855;BME280;4966;48.112;9.282;2024-03-22T11:00:57;94933.63;;;19.00;40.47
9855;BME280;4966;48.112;9.282;2024-03-22T11:03:24;94921.53;;;19.26;42.05
9855;BME280;4966;48.112;9.282;2024-03-22T11:05:54;94915.59;;;19.13;41.03
9855;BME280;4966;48.112;9.282;2024-03-22T11:08:27;94914.44;;;19.21;41.72
9855;BME280;4966;48.112;9.282;2024-03-22T11:10:54;94914.75;;;19.02;42.55
9855;BME280;4966;48.112;9.282;2024-03-22T11:13:19;94906.97;;;19.25;40.15
9855;BME280;4966;48.112;9.282;2024-03-22T11:15:51;94893.56;;;19.24;39.95
9855;BME280;4966;48.112;9.282;2024-03-22T11:18:17;94902.84;;;18.90;41.02
9855;BME280;4966;48.112;9.282;2024-03-22T11:20:43;94902.13;;;19.01;41.79
9855;BME280;4966;48.112;9.282;2024-03-22T11:23:10;94893.19;;;19.25;42.47
9855;BME280;4966;48.112;9.282;2024-03-22T11:25:35;94896.13;;;19.83;41.03
9855;BME280;4966;48.112;9.282;2024-03-22T11:28:01;94878.75;;;19.93;39.75
9855;BME280;4966;48.112;9.282;2024-03-22T11:30:32;94876.78;;;19.86;39.46
9855;BME280;4966;48.112;9.282;2024-03-22T11:33:01;94873.50;;;19.38;40.74
9855;BME280;4966;48.112;9.282;2024-03-22T11:35:26;94871.16;;;19.40;40.48
9855;BME280;4966;48.112;9.282;2024-03-22T11:37:52;94859.84;;;20.02;40.01
9855;BME280;4966;48.112;9.282;2024-03-22T11:40:17;94868.50;;;20.22;40.32
9855;BME280;4966;48.112;9.282;2024-03-22T11:42:46;94857.22;;;21.93;36.50
9855;BME280;4966;48.112;9.282;2024-03-22T11:45:13;94849.06;;;23.41;34.98
9855;BME280;4966;48.112;9.282;2024-03-22T11:47:39;94843.28;;;25.23;31.70
9855;BME280;4966;48.112;9.282;2024-03-22T11:50:05;94840.84;;;25.82;28.47
9855;BME280;4966;48.112;9.282;2024-03-22T11:52:30;94838.72;;;26.22;27.33
9855;BME280;4966;48.112;9.282;2024-03-22T11:54:56;94835.09;;;28.23;25.47
9855;BME280;4966;48.112;9.282;2024-03-22T11:57:22;94834.19;;;28.51;25.32
9855;BME280;4966;48.112;9.282;2024-03-22T11:59:48;94839.63;;;27.94;25.29
9855;BME280;4966;48.112;9.282;2024-03-22T12:02:14;94830.41;;;28.80;25.20
9855;BME280;4966;48.112;9.282;2024-03-22T12:04:45;94824.59;;;29.53;24.63
9855;BME280;4966;48.112;9.282;2024-03-22T12:07:14;94820.56;;;28.75;25.72
9855;BME280;4966;48.112;9.282;2024-03-22T12:09:40;94819.75;;;28.27;25.89
9855;BME280;4966;48.112;9.282;2024-03-22T12:12:08;94811.91;;;27.32;27.31
9855;BME280;4966;48.112;9.282;2024-03-22T12:14:34;94807.22;;;27.42;27.65
9855;BME280;4966;48.112;9.282;2024-03-22T12:16:59;94801.31;;;26.36;28.04
9855;BME280;4966;48.112;9.282;2024-03-22T12:19:25;94799.94;;;26.28;28.43
9855;BME280;4966;48.112;9.282;2024-03-22T12:21:50;94794.09;;;26.22;29.57
9855;BME280;4966;48.112;9.282;2024-03-22T12:24:16;94794.31;;;25.62;29.35
9855;BME280;4966;48.112;9.282;2024-03-22T12:26:41;94782.41;;;26.89;28.57
9855;BME280;4966;48.112;9.282;2024-03-22T12:29:06;94782.69;;;26.17;28.52
9855;BME280;4966;48.112;9.282;2024-03-22T12:31:32;94782.66;;;25.67;29.33
9855;BME280;4966;48.112;9.282;2024-03-22T12:33:57;94779.53;;;24.89;30.68
9855;BME280;4966;48.112;9.282;2024-03-22T12:36:23;94780.59;;;24.32;31.70
9855;BME280;4966;48.112;9.282;2024-03-22T12:38:49;94776.53;;;23.89;32.24
9855;BME280;4966;48.112;9.282;2024-03-22T12:41:14;94771.00;;;24.13;33.22
9855;BME280;4966;48.112;9.282;2024-03-22T12:43:40;94766.59;;;23.65;32.50
9855;BME280;4966;48.112;9.282;2024-03-22T12:46:07;94752.69;;;23.10;34.14
9855;BME280;4966;48.112;9.282;2024-03-22T12:48:33;94765.19;;;22.61;34.12
9855;BME280;4966;48.112;9.282;2024-03-22T12:50:58;94743.47;;;23.21;34.65
9855;BME280;4966;48.112;9.282;2024-03-22T12:53:25;94749.47;;;22.85;34.77
9855;BME280;4966;48.112;9.282;2024-03-22T12:55:50;94744.69;;;23.97;32.73
9855;BME280;4966;48.112;9.282;2024-03-22T12:58:16;94736.81;;;23.65;32.73
9855;BME280;4966;48.112;9.282;2024-03-22T13:00:41;94732.41;;;24.18;32.80
9855;BME280;4966;48.112;9.282;2024-03-22T13:03:07;94724.97;;;23.88;32.80
9855;BME280;4966;48.112;9.282;2024-03-22T13:05:32;94718.88;;;24.40;31.75
9855;BME280;4966;48.112;9.282;2024-03-22T13:07:58;94715.00;;;24.58;32.27
9855;BME280;4966;48.112;9.282;2024-03-22T13:10:23;94709.25;;;24.85;32.16
9855;BME280;4966;48.112;9.282;2024-03-22T13:12:48;94699.94;;;25.81;30.75
9855;BME280;4966;48.112;9.282;2024-03-22T13:15:14;94692.88;;;25.27;30.95
9855;BME280;4966;48.112;9.282;2024-03-22T13:17:39;94699.63;;;24.90;30.48
9855;BME280;4966;48.112;9.282;2024-03-22T13:20:05;94684.88;;;25.78;30.24